Aérodrome :
LOGIN :

S'inscrire | Disclaimer

   EN    FR    IT 

 










Légende :    VFR   VFR Marginal   IFR   IFR Intensif   IFR Très Intensif
Visi : 
Plafond : 
>= 8 km
>= 3000ft
5 à 8 km
1000 à 3000 ft
1500m à 5 km
500 à 1000 ft
800 à 1500m
200 à 500 ft
< 800m
< 200 ft
Symboles :   Orages  Brouillard  Fortes neiges  Fortes précipitations  Vent > 20 kt
SIGMETs :   Divers  Orages  Givrage  Turbulence  Onde Orograph.  Cendres Volcan.







- Altitude de l'aérodrome : 1306 ft
- Code IATA : ACH


LSZR - Alten Rhein

DERNIER METAR :
  • 221050Z 09004KT 060V120 9999 FEW025 BKN040 13/11 Q1020 NOSIG RMK G

METARs EXPIRÉS :
  • 221020Z 07005KT 9999 FEW025 BKN040 13/11 Q1020 NOSIG RMK G
  • 220950Z VRB02KT 9999 FEW025 BKN040 13/09 Q1019 NOSIG RMK F
  • 220920Z VRB02KT 9999 FEW025 BKN040 13/09 Q1019 NOSIG RMK F
  • 220850Z VRB02KT 9999 BKN040 13/12 Q1019 NOSIG RMK E
  • 220820Z VRB03KT 9999 BKN040 12/12 Q1019 NOSIG RMK E

TAF TAF LSZR
Valide du 22 à 09h jusqu'au 22 à 18h UTC


220825Z 2209/2218 VRB03KT 9999 FEW020 SCT030 BKN050
ATIS : +41 71 858 51 66
Pas de NOTAMs connus pour ce terrain.



MET'MAP, la Météo Aéronautique d'un coup d'oeil ! - Copyright ORBIFLY Décembre 2007 - Disclaimer

ORBIFLY MET'MAP TEAM :

Programmation & Développement : Alexandra Zaïnal
Conception & Développement : Baudouin d'Aumeries
Co-Programmation & Développement : Marc-Olivier Méhu
Soutien technique & logistique : Manuel Goepfert

Contact : metmap@orbifly.com




SOURCES & CREDITS :

   NOAA